createdAt,value
2023-03-13T00:01:10.842Z,6.8
2023-03-13T00:02:25.000Z,6.8
2023-03-13T00:03:38.603Z,6.8
2023-03-13T00:04:52.949Z,6.9
2023-03-13T00:06:07.316Z,6.9
2023-03-13T00:07:21.659Z,6.9
2023-03-13T00:08:36.028Z,6.9
2023-03-13T00:09:49.440Z,6.9
2023-03-13T00:11:03.805Z,7
2023-03-13T00:12:17.202Z,6.9
2023-03-13T00:14:45.915Z,6.9
2023-03-13T00:16:00.259Z,7
2023-03-13T00:17:14.627Z,7
2023-03-13T00:18:28.992Z,7
2023-03-13T00:19:43.335Z,7
2023-03-13T00:20:57.679Z,7
2023-03-13T00:22:12.041Z,7
2023-03-13T00:23:26.389Z,7
2023-03-13T00:24:40.758Z,7
2023-03-13T00:25:55.102Z,7.1
2023-03-13T00:27:09.464Z,7
2023-03-13T00:28:23.805Z,7.1
2023-03-13T00:29:38.178Z,7.1
2023-03-13T00:32:06.879Z,7.1
2023-03-13T00:33:20.292Z,7.1
2023-03-13T00:34:34.649Z,7.1
2023-03-13T00:35:48.000Z,7.1
2023-03-13T00:37:02.417Z,7.1
2023-03-13T00:38:16.761Z,7.1
2023-03-13T00:39:31.000Z,7.1
2023-03-13T00:40:45.472Z,7.1
2023-03-13T00:41:59.835Z,7.1
2023-03-13T00:43:14.198Z,7.1
2023-03-13T00:44:28.536Z,7.1
2023-03-13T00:45:42.893Z,7.1
2023-03-13T00:48:10.671Z,7.1
2023-03-13T00:49:25.021Z,7.2
2023-03-13T00:50:39.388Z,7.2
2023-03-13T00:51:53.734Z,7.2
2023-03-13T00:53:08.000Z,7.2
2023-03-13T00:54:21.494Z,7.2
2023-03-13T00:56:50.213Z,7.2
2023-03-13T00:58:04.000Z,7.2
2023-03-13T00:59:18.913Z,7.2
2023-03-13T01:00:33.274Z,7.2
2023-03-13T01:01:47.630Z,7.2
2023-03-13T01:03:01.000Z,7.3
2023-03-13T01:04:16.335Z,7.3
2023-03-13T01:05:30.692Z,7.2
2023-03-13T01:06:45.037Z,7.3
2023-03-13T01:07:59.405Z,7.3
2023-03-13T01:09:13.749Z,7.3
2023-03-13T01:10:27.150Z,7.3
2023-03-13T01:11:41.000Z,7.3
2023-03-13T01:12:55.862Z,7.3
2023-03-13T01:14:10.231Z,7.3
2023-03-13T01:15:23.635Z,7.3
2023-03-13T01:16:37.052Z,7.3
2023-03-13T01:17:51.389Z,7.3
2023-03-13T01:19:05.748Z,7.3
2023-03-13T01:20:20.100Z,7.3
2023-03-13T01:21:34.469Z,7.3
2023-03-13T01:22:48.811Z,7.3
2023-03-13T01:24:03.166Z,7.3
2023-03-13T01:25:17.535Z,7.4
2023-03-13T01:26:31.891Z,7.4
2023-03-13T01:27:46.000Z,7.4
2023-03-13T01:30:14.945Z,7.4
2023-03-13T01:32:43.660Z,7.4
2023-03-13T01:33:58.004Z,7.4
2023-03-13T01:35:12.369Z,7.5
2023-03-13T01:37:41.075Z,7.5
2023-03-13T01:38:54.503Z,7.5
2023-03-13T01:40:07.000Z,7.5
2023-03-13T01:41:22.259Z,7.5
2023-03-13T01:42:36.606Z,7.5
2023-03-13T01:43:50.958Z,7.5
2023-03-13T01:45:05.323Z,7.5
2023-03-13T01:46:19.673Z,7.5
2023-03-13T01:47:34.028Z,7.5
2023-03-13T01:48:48.000Z,7.6
2023-03-13T01:50:02.732Z,7.6
2023-03-13T01:51:17.087Z,7.6
2023-03-13T01:53:44.875Z,7.6
2023-03-13T01:54:58.269Z,7.6
2023-03-13T01:56:12.630Z,7.6
2023-03-13T01:57:26.977Z,7.6
2023-03-13T01:58:41.344Z,7.5
2023-03-13T02:01:10.040Z,7.6
2023-03-13T02:02:24.393Z,7.6
2023-03-13T02:03:38.764Z,7.6
2023-03-13T02:04:53.108Z,7.6
2023-03-13T02:06:07.463Z,7.6
2023-03-13T02:07:21.000Z,7.6
2023-03-13T02:09:50.524Z,7.6
2023-03-13T02:11:04.877Z,7.7
2023-03-13T02:12:18.287Z,7.7
2023-03-13T02:13:32.651Z,7.7
2023-03-13T02:14:46.997Z,7.7
2023-03-13T02:16:01.357Z,7.7
2023-03-13T02:17:15.000Z,7.7
2023-03-13T02:18:30.070Z,7.7
2023-03-13T02:19:44.414Z,7.7
2023-03-13T02:20:58.775Z,7.7
2023-03-13T02:22:13.000Z,7.7
2023-03-13T02:23:27.000Z,7.7
2023-03-13T02:24:41.836Z,7.7
2023-03-13T02:25:56.189Z,7.7
2023-03-13T02:27:10.538Z,7.7
2023-03-13T02:29:38.318Z,7.7
2023-03-13T02:32:07.024Z,7.7
2023-03-13T02:34:35.729Z,7.7
2023-03-13T02:35:49.144Z,7.7
2023-03-13T02:37:03.490Z,7.7
2023-03-13T02:38:17.000Z,7.7
2023-03-13T02:39:32.207Z,7.7
2023-03-13T02:40:46.557Z,7.7
2023-03-13T02:42:00.000Z,7.7
2023-03-13T02:43:15.260Z,7.8
2023-03-13T02:45:43.000Z,7.8
2023-03-13T02:46:58.344Z,7.8
2023-03-13T02:48:12.691Z,7.8
2023-03-13T02:49:27.048Z,7.8
2023-03-13T02:50:41.386Z,7.8
2023-03-13T02:51:55.875Z,7.8
2023-03-13T02:53:10.224Z,7.8
2023-03-13T02:54:24.585Z,7.8
2023-03-13T02:55:38.938Z,7.8
2023-03-13T02:56:53.290Z,7.8
2023-03-13T02:58:07.639Z,7.8
2023-03-13T02:59:21.991Z,7.8
2023-03-13T03:00:35.431Z,7.8
2023-03-13T03:01:48.822Z,7.9
2023-03-13T03:04:17.543Z,7.9
2023-03-13T03:05:31.880Z,7.8
2023-03-13T03:08:00.602Z,7.9
2023-03-13T03:09:14.951Z,7.9
2023-03-13T03:10:29.310Z,7.9
2023-03-13T03:11:43.000Z,7.9
2023-03-13T03:12:58.020Z,7.9
2023-03-13T03:14:12.370Z,7.9
2023-03-13T03:15:25.777Z,8
2023-03-13T03:16:40.145Z,7.9
2023-03-13T03:17:54.000Z,8
2023-03-13T03:19:08.842Z,8
2023-03-13T03:20:23.195Z,8
2023-03-13T03:21:37.551Z,8
2023-03-13T03:22:51.913Z,7.9
2023-03-13T03:25:20.616Z,8
2023-03-13T03:26:34.971Z,8
2023-03-13T03:27:48.396Z,8
2023-03-13T03:29:02.760Z,8
2023-03-13T03:30:16.164Z,8.1
2023-03-13T03:31:30.506Z,8
2023-03-13T03:32:44.871Z,8.1
2023-03-13T03:35:13.571Z,8.1
2023-03-13T03:36:27.924Z,8.1
2023-03-13T03:37:42.285Z,8.1
2023-03-13T03:38:56.633Z,8.1
2023-03-13T03:40:10.994Z,8.1
2023-03-13T03:41:25.341Z,8.1
2023-03-13T03:43:54.051Z,8.1
2023-03-13T03:45:08.408Z,8.1
2023-03-13T03:46:21.820Z,8.1
2023-03-13T03:47:36.165Z,8.1
2023-03-13T03:48:50.517Z,8.1
2023-03-13T03:50:04.879Z,8.1
2023-03-13T03:51:19.233Z,8.1
2023-03-13T03:52:33.578Z,8.1
2023-03-13T03:53:47.952Z,8.1
2023-03-13T03:55:02.304Z,8.1
2023-03-13T03:56:16.654Z,8.1
2023-03-13T03:57:31.012Z,8.1
2023-03-13T03:58:45.364Z,8.1
2023-03-13T03:59:59.721Z,8.1
2023-03-13T04:01:14.065Z,8.1
2023-03-13T04:02:28.427Z,8.1
2023-03-13T04:03:41.841Z,8.1
2023-03-13T04:06:09.613Z,8.2
2023-03-13T04:07:23.968Z,8.2
2023-03-13T04:08:38.306Z,8.2
2023-03-13T04:09:52.673Z,8.2
2023-03-13T04:11:07.016Z,8.2
2023-03-13T04:12:21.381Z,8.3
2023-03-13T04:14:50.079Z,8.2
2023-03-13T04:16:04.451Z,8.2
2023-03-13T04:17:18.794Z,8.2
2023-03-13T04:19:47.496Z,8.3
2023-03-13T04:21:01.854Z,8.3
2023-03-13T04:22:16.222Z,8.3
2023-03-13T04:23:29.630Z,8.4
2023-03-13T04:25:58.339Z,8.4
2023-03-13T04:27:12.701Z,8.4
2023-03-13T04:28:27.064Z,8.4
2023-03-13T04:29:41.414Z,8.4
2023-03-13T04:32:09.157Z,8.5
2023-03-13T04:33:23.527Z,8.5
2023-03-13T04:34:37.869Z,8.5
2023-03-13T04:35:52.241Z,8.6
2023-03-13T04:37:06.575Z,8.5
2023-03-13T04:38:20.931Z,8.6
2023-03-13T04:39:35.299Z,8.6
2023-03-13T04:40:49.000Z,8.6
2023-03-13T04:43:18.352Z,8.5
2023-03-13T04:44:32.707Z,8.5
2023-03-13T04:45:47.074Z,8.6
2023-03-13T04:47:00.464Z,8.6
2023-03-13T04:48:14.822Z,8.6
2023-03-13T04:49:29.186Z,8.6
2023-03-13T04:50:43.544Z,8.5
2023-03-13T04:51:57.892Z,8.5
2023-03-13T04:53:12.253Z,8.6
2023-03-13T04:54:26.606Z,8.5
2023-03-13T04:55:40.952Z,8.5
2023-03-13T04:56:55.299Z,8.5
2023-03-13T04:58:08.737Z,8.5
2023-03-13T04:59:23.090Z,8.5
2023-03-13T05:01:51.920Z,8.5
2023-03-13T05:04:20.567Z,8.5
2023-03-13T05:05:34.873Z,8.5
2023-03-13T05:06:49.184Z,8.5
2023-03-13T05:08:03.483Z,8.5
2023-03-13T05:09:17.789Z,8.4
2023-03-13T05:10:32.086Z,8.5
2023-03-13T05:11:46.380Z,8.5
2023-03-13T05:13:00.692Z,8.5
2023-03-13T05:14:14.046Z,8.5
2023-03-13T05:15:27.413Z,8.5
2023-03-13T05:16:41.706Z,8.5
2023-03-13T05:17:56.006Z,8.5
2023-03-13T05:19:10.304Z,8.5
2023-03-13T05:20:24.599Z,8.5
2023-03-13T05:21:38.909Z,8.5
2023-03-13T05:22:53.215Z,8.5
2023-03-13T05:24:07.500Z,8.5
2023-03-13T05:25:21.800Z,8.5
2023-03-13T05:26:36.106Z,8.5
2023-03-13T05:27:50.560Z,8.5
2023-03-13T05:29:03.903Z,8.5
2023-03-13T05:30:18.195Z,8.5
2023-03-13T05:31:32.506Z,8.6
2023-03-13T05:32:46.807Z,8.6
2023-03-13T05:34:01.106Z,8.6
2023-03-13T05:35:15.404Z,8.6
2023-03-13T05:36:29.711Z,8.6
2023-03-13T05:37:44.006Z,8.6
2023-03-13T05:38:58.295Z,8.6
2023-03-13T05:41:26.905Z,8.7
2023-03-13T05:42:41.197Z,8.7
2023-03-13T05:43:55.503Z,8.7
2023-03-13T05:47:37.457Z,8.7
2023-03-13T05:50:05.125Z,8.6
2023-03-13T05:52:33.729Z,8.7
2023-03-13T05:53:48.176Z,8.7
2023-03-13T05:55:01.517Z,8.7
2023-03-13T05:56:15.821Z,8.8
2023-03-13T05:57:30.111Z,8.8
2023-03-13T05:58:44.425Z,8.8
2023-03-13T05:59:58.713Z,8.8
2023-03-13T06:01:13.015Z,8.8
2023-03-13T06:04:55.917Z,8.8
2023-03-13T06:06:10.226Z,8.9
2023-03-13T06:08:38.826Z,8.8
2023-03-13T06:09:53.117Z,8.9
2023-03-13T06:11:06.471Z,8.8
2023-03-13T06:13:35.081Z,8.8
2023-03-13T06:14:49.377Z,8.8
2023-03-13T06:16:03.670Z,8.8
2023-03-13T06:17:17.973Z,8.8
2023-03-13T06:18:32.000Z,8.8
2023-03-13T06:19:46.570Z,8.8
2023-03-13T06:21:00.877Z,8.8
2023-03-13T06:22:15.186Z,8.8
2023-03-13T06:23:29.483Z,8.8
2023-03-13T06:24:43.775Z,8.8
2023-03-13T06:25:58.069Z,8.8
2023-03-13T06:28:26.668Z,8.8
2023-03-13T06:29:40.970Z,8.8
2023-03-13T06:30:55.273Z,8.7
2023-03-13T06:32:08.627Z,8.7
2023-03-13T06:33:22.937Z,8.7
2023-03-13T06:35:51.525Z,8.7
2023-03-13T06:37:05.838Z,8.7
2023-03-13T06:39:34.434Z,8.7
2023-03-13T06:40:48.740Z,8.6
2023-03-13T06:42:03.035Z,8.6
2023-03-13T06:43:17.335Z,8.7
2023-03-13T06:44:31.624Z,8.6
2023-03-13T06:45:45.944Z,8.6
2023-03-13T06:47:00.237Z,8.7
2023-03-13T06:48:14.531Z,8.6
2023-03-13T06:49:27.888Z,8.6
2023-03-13T06:50:42.174Z,8.7
2023-03-13T06:51:56.477Z,8.6
2023-03-13T06:53:10.780Z,8.6
2023-03-13T06:54:25.083Z,8.6
2023-03-13T06:55:39.379Z,8.6
2023-03-13T06:56:53.688Z,8.6
2023-03-13T06:58:07.000Z,8.6
2023-03-13T06:59:22.294Z,8.6
2023-03-13T07:01:50.895Z,8.6
2023-03-13T07:04:19.500Z,8.6
2023-03-13T07:05:33.919Z,8.6
2023-03-13T07:06:48.223Z,8.6
2023-03-13T07:08:02.000Z,8.7
2023-03-13T07:09:16.825Z,8.7
2023-03-13T07:12:59.723Z,8.7
2023-03-13T07:14:14.000Z,8.7
2023-03-13T07:16:42.610Z,8.7
2023-03-13T07:17:56.912Z,8.7
2023-03-13T07:20:25.520Z,8.7
2023-03-13T07:21:39.948Z,8.7
2023-03-13T07:24:08.535Z,8.7
2023-03-13T07:25:22.839Z,8.7
2023-03-13T07:27:51.557Z,8.7
2023-03-13T07:29:05.863Z,8.7
2023-03-13T07:30:20.166Z,8.8
2023-03-13T07:31:34.581Z,8.8
2023-03-13T07:32:48.879Z,8.8
2023-03-13T07:34:03.000Z,8.8
2023-03-13T07:35:17.490Z,8.9
2023-03-13T07:36:31.789Z,8.9
2023-03-13T07:37:46.094Z,8.9
2023-03-13T07:39:00.396Z,9
2023-03-13T07:40:14.696Z,9
2023-03-13T07:41:29.003Z,9.1
2023-03-13T07:42:43.283Z,9.1
2023-03-13T07:43:57.586Z,9.2
2023-03-13T07:46:26.000Z,9.3
2023-03-13T07:47:40.507Z,9.3
2023-03-13T07:48:54.790Z,9.4
2023-03-13T07:50:09.090Z,9.4
2023-03-13T07:51:22.438Z,9.5
2023-03-13T07:52:36.750Z,9.5
2023-03-13T07:55:05.339Z,9.6
2023-03-13T07:57:33.953Z,9.7
2023-03-13T08:00:02.547Z,9.8
2023-03-13T08:01:16.847Z,9.9
2023-03-13T08:03:45.448Z,9.9
2023-03-13T08:04:59.755Z,9.9
2023-03-13T08:08:42.660Z,10.1
2023-03-13T08:09:56.943Z,10.1
2023-03-13T08:11:10.306Z,10.1
2023-03-13T08:12:24.606Z,10.2
2023-03-13T08:13:38.896Z,10.2
2023-03-13T08:14:53.195Z,10.2
2023-03-13T08:16:07.506Z,10.3
2023-03-13T08:18:36.115Z,10.3
2023-03-13T08:21:04.691Z,10.5
2023-03-13T08:22:18.989Z,10.5
2023-03-13T08:23:33.000Z,10.5
2023-03-13T08:24:47.590Z,10.5
2023-03-13T08:26:01.000Z,10.4
2023-03-13T08:27:16.197Z,10.4
2023-03-13T08:28:29.533Z,10.4
2023-03-13T08:29:43.844Z,10.4
2023-03-13T08:30:58.146Z,10.3
2023-03-13T08:32:12.448Z,10.3
2023-03-13T08:33:26.736Z,10.3
2023-03-13T08:34:41.000Z,10.3
2023-03-13T08:37:09.652Z,10.2
2023-03-13T08:38:23.954Z,10.2
2023-03-13T08:39:38.239Z,10.2
2023-03-13T08:40:52.539Z,10.3
2023-03-13T08:42:06.853Z,10.3
2023-03-13T08:43:21.142Z,10.3
2023-03-13T08:47:04.040Z,10.2
2023-03-13T08:48:17.402Z,10.2
2023-03-13T08:49:31.689Z,10.2
2023-03-13T08:50:45.996Z,10.2
2023-03-13T08:52:00.308Z,10.1
2023-03-13T08:53:14.608Z,10.1
2023-03-13T08:54:28.893Z,10.1
2023-03-13T08:56:57.504Z,10
2023-03-13T08:58:11.807Z,10
2023-03-13T08:59:26.113Z,10
2023-03-13T09:00:40.410Z,10
2023-03-13T09:01:54.701Z,10
2023-03-13T09:04:23.299Z,10
2023-03-13T09:05:37.602Z,10
2023-03-13T09:06:51.900Z,10
2023-03-13T09:08:06.200Z,10
2023-03-13T09:09:19.000Z,10
2023-03-13T09:10:33.862Z,10
2023-03-13T09:11:48.153Z,10
2023-03-13T09:13:02.451Z,10
2023-03-13T09:14:16.758Z,10
2023-03-13T09:15:31.055Z,10
2023-03-13T09:16:45.354Z,10.1
2023-03-13T09:17:59.655Z,10.1
2023-03-13T09:19:13.969Z,10.1
2023-03-13T09:20:28.000Z,10.1
2023-03-13T09:21:42.562Z,10.1
2023-03-13T09:22:56.856Z,10.1
2023-03-13T09:25:25.000Z,10.2
2023-03-13T09:26:39.000Z,10.2
2023-03-13T09:27:54.000Z,10.2
2023-03-13T09:29:08.488Z,10.2
2023-03-13T09:30:21.860Z,10.3
2023-03-13T09:31:36.164Z,10.3
2023-03-13T09:32:50.460Z,10.3
2023-03-13T09:34:04.887Z,10.4
2023-03-13T09:36:33.000Z,10.4
2023-03-13T09:37:47.778Z,10.4
2023-03-13T09:39:02.094Z,10.5
2023-03-13T09:40:16.000Z,10.5
2023-03-13T09:41:30.000Z,10.5
2023-03-13T09:42:45.000Z,10.6
2023-03-13T09:43:59.000Z,10.6
2023-03-13T09:45:13.000Z,10.7
2023-03-13T09:46:27.000Z,10.7
2023-03-13T09:47:42.199Z,10.7
2023-03-13T09:48:56.000Z,10.8
2023-03-13T09:50:10.792Z,10.8
2023-03-13T09:51:25.098Z,10.9
2023-03-13T09:52:39.392Z,11
2023-03-13T09:53:52.746Z,11.1
2023-03-13T09:55:07.047Z,11.1
2023-03-13T09:56:21.342Z,11.2
2023-03-13T09:57:34.716Z,11.3
2023-03-13T10:00:03.304Z,11.3
2023-03-13T10:01:17.601Z,11.3
2023-03-13T10:02:31.907Z,11.3
2023-03-13T10:03:46.000Z,11.3
2023-03-13T10:05:00.513Z,11.4
2023-03-13T10:06:13.868Z,11.4
2023-03-13T10:07:28.165Z,11.4
2023-03-13T10:08:42.472Z,11.4
2023-03-13T10:11:11.063Z,11.4
2023-03-13T10:13:39.675Z,11.4
2023-03-13T10:14:53.958Z,11.4
2023-03-13T10:17:22.564Z,11.4
2023-03-13T10:18:35.943Z,11.4
2023-03-13T10:19:50.230Z,11.4
2023-03-13T10:21:04.000Z,11.4
2023-03-13T10:22:18.000Z,11.5
2023-03-13T10:23:33.000Z,11.5
2023-03-13T10:24:47.426Z,11.5
2023-03-13T10:26:01.742Z,11.5
2023-03-13T10:28:30.337Z,11.5
2023-03-13T10:29:44.638Z,11.5
2023-03-13T10:30:57.980Z,11.5
2023-03-13T10:32:12.281Z,11.5
2023-03-13T10:34:40.000Z,11.5
2023-03-13T10:35:54.254Z,11.5
2023-03-13T10:37:08.541Z,11.5
2023-03-13T10:38:22.000Z,11.5
2023-03-13T10:39:36.204Z,11.5
2023-03-13T10:40:50.498Z,11.5
2023-03-13T10:42:04.802Z,11.5
2023-03-13T10:43:19.106Z,11.5
2023-03-13T10:44:33.400Z,11.5
2023-03-13T10:45:47.703Z,11.5
2023-03-13T10:47:02.000Z,11.6
2023-03-13T10:48:16.000Z,11.6
2023-03-13T10:49:30.601Z,11.6
2023-03-13T10:50:44.895Z,11.6
2023-03-13T10:54:26.000Z,11.8
2023-03-13T10:56:55.471Z,11.8
2023-03-13T10:59:24.000Z,11.9
2023-03-13T11:00:38.000Z,11.9
2023-03-13T11:01:52.675Z,12
2023-03-13T11:03:06.978Z,12
2023-03-13T11:04:21.272Z,12.1
2023-03-13T11:05:35.000Z,12.2
2023-03-13T11:06:49.879Z,12.2
2023-03-13T11:08:04.163Z,12.3
2023-03-13T11:09:18.000Z,12.4
2023-03-13T11:10:32.000Z,12.5
2023-03-13T11:11:47.060Z,12.6
2023-03-13T11:13:00.419Z,12.7
2023-03-13T11:14:14.724Z,12.8
2023-03-13T11:15:29.026Z,12.9
2023-03-13T11:16:43.307Z,13
2023-03-13T11:17:57.618Z,13
2023-03-13T11:19:11.921Z,13.1
2023-03-13T11:21:40.519Z,13.4
2023-03-13T11:22:54.807Z,13.4
2023-03-13T11:26:37.712Z,13.7
2023-03-13T11:27:52.008Z,13.7
2023-03-13T11:30:20.624Z,13.8
2023-03-13T11:31:35.040Z,13.8
2023-03-13T11:32:49.343Z,13.9
2023-03-13T11:34:03.636Z,13.9
2023-03-13T11:35:17.935Z,13.9
2023-03-13T11:36:32.239Z,14
2023-03-13T11:37:46.531Z,14
2023-03-13T11:40:15.137Z,14.1
2023-03-13T11:41:29.429Z,14.1
2023-03-13T11:42:43.735Z,14.1
2023-03-13T11:43:58.039Z,14.2
2023-03-13T11:45:12.332Z,14.2
2023-03-13T11:47:40.000Z,14.3
2023-03-13T11:48:54.304Z,14.3
2023-03-13T11:50:08.731Z,14.3
2023-03-13T11:51:23.030Z,14.4
2023-03-13T11:52:37.311Z,14.4
2023-03-13T11:53:51.614Z,14.4
2023-03-13T11:55:05.919Z,14.4
2023-03-13T11:56:20.219Z,14.5
2023-03-13T11:57:34.519Z,14.5
2023-03-13T11:58:48.813Z,14.5
2023-03-13T12:00:03.131Z,14.5
2023-03-13T12:01:17.000Z,14.5
2023-03-13T12:02:31.726Z,14.5
2023-03-13T12:03:46.014Z,14.5
2023-03-13T12:05:00.329Z,14.5
2023-03-13T12:08:43.216Z,14.6
2023-03-13T12:09:57.516Z,14.7
2023-03-13T12:11:11.812Z,14.7
2023-03-13T12:13:40.415Z,14.9
2023-03-13T12:14:54.720Z,14.9
2023-03-13T12:16:09.021Z,15
2023-03-13T12:18:36.677Z,15.2
2023-03-13T12:19:50.971Z,15.3
2023-03-13T12:21:05.270Z,15.4
2023-03-13T12:22:19.572Z,15.5
2023-03-13T12:24:48.178Z,15.7
2023-03-13T12:26:02.463Z,15.8
2023-03-13T12:27:16.768Z,15.8
2023-03-13T12:28:31.070Z,15.8
2023-03-13T12:29:45.365Z,15.9
2023-03-13T12:30:59.674Z,16
2023-03-13T12:32:13.974Z,16
2023-03-13T12:33:28.265Z,16
2023-03-13T12:34:42.579Z,16
2023-03-13T12:35:55.919Z,15.9
2023-03-13T12:38:24.515Z,15.9
2023-03-13T12:39:38.829Z,15.8
2023-03-13T12:40:53.125Z,15.7
2023-03-13T12:43:21.716Z,15.5
2023-03-13T12:44:36.022Z,15.4
2023-03-13T12:45:50.313Z,15.3
2023-03-13T12:47:04.619Z,15.3
2023-03-13T12:48:18.912Z,15.4
2023-03-13T12:49:33.218Z,15.5
2023-03-13T12:50:47.000Z,15.6
2023-03-13T12:52:01.812Z,15.7
2023-03-13T12:53:16.123Z,15.8
2023-03-13T12:54:29.475Z,15.8
2023-03-13T12:55:43.768Z,15.9
2023-03-13T12:56:58.075Z,15.9
2023-03-13T12:58:12.366Z,15.9
2023-03-13T12:59:26.680Z,15.9
2023-03-13T13:00:40.971Z,15.9
2023-03-13T13:01:55.269Z,15.9
2023-03-13T13:03:09.568Z,15.9
2023-03-13T13:04:23.862Z,15.9
2023-03-13T13:05:38.176Z,15.8
2023-03-13T13:06:52.467Z,15.7
2023-03-13T13:08:06.768Z,15.7
2023-03-13T13:09:20.147Z,15.6
2023-03-13T13:10:34.447Z,15.5
2023-03-13T13:11:48.749Z,15.5
2023-03-13T13:14:17.344Z,15.3
2023-03-13T13:15:31.644Z,15.3
2023-03-13T13:16:44.998Z,15.3
2023-03-13T13:17:59.000Z,15.3
2023-03-13T13:19:13.579Z,15.3
2023-03-13T13:20:27.894Z,15.3
2023-03-13T13:21:42.198Z,15.3
2023-03-13T13:22:56.480Z,15.3
2023-03-13T13:25:25.091Z,15.3
2023-03-13T13:26:39.398Z,15.3
2023-03-13T13:27:53.692Z,15.3
2023-03-13T13:29:07.982Z,15.2
2023-03-13T13:32:50.894Z,15.2
2023-03-13T13:34:05.201Z,15.2
2023-03-13T13:35:19.485Z,15.2
2023-03-13T13:36:33.783Z,15.2
2023-03-13T13:37:48.090Z,15.2
2023-03-13T13:39:02.389Z,15.2
2023-03-13T13:40:16.683Z,15.3
2023-03-13T13:41:30.992Z,15.3
2023-03-13T13:42:45.295Z,15.3
2023-03-13T13:43:59.585Z,15.3
2023-03-13T13:47:42.492Z,15.5
2023-03-13T13:50:11.095Z,15.5
2023-03-13T13:52:39.692Z,15.5
2023-03-13T13:53:54.000Z,15.4
2023-03-13T13:55:08.296Z,15.4
2023-03-13T13:56:22.593Z,15.4
2023-03-13T13:57:36.904Z,15.4
2023-03-13T13:58:50.260Z,15.3
2023-03-13T14:00:04.556Z,15.3
2023-03-13T14:01:18.868Z,15.3
2023-03-13T14:02:33.160Z,15.3
2023-03-13T14:05:01.767Z,15.3
2023-03-13T14:06:16.058Z,15.3
2023-03-13T14:07:30.357Z,15.3
2023-03-13T14:08:44.671Z,15.3
2023-03-13T14:09:58.002Z,15.3
2023-03-13T14:11:12.319Z,15.4
2023-03-13T14:12:26.619Z,15.4
2023-03-13T14:13:40.911Z,15.4
2023-03-13T14:18:38.123Z,15.5
2023-03-13T14:19:52.415Z,15.5
2023-03-13T14:22:21.014Z,15.6
2023-03-13T14:23:35.312Z,15.7
2023-03-13T14:24:49.620Z,15.7
2023-03-13T14:26:03.917Z,15.8
2023-03-13T14:27:17.260Z,15.8
2023-03-13T14:28:31.553Z,15.9
2023-03-13T14:29:45.871Z,15.8
2023-03-13T14:32:14.469Z,15.8
2023-03-13T14:33:28.770Z,15.7
2023-03-13T14:34:43.064Z,15.6
2023-03-13T14:35:57.354Z,15.5
2023-03-13T14:37:11.658Z,15.5
2023-03-13T14:38:25.953Z,15.4
2023-03-13T14:40:54.560Z,15.4
2023-03-13T14:43:23.157Z,15.3
2023-03-13T14:44:37.462Z,15.3
2023-03-13T14:45:51.769Z,15.3
2023-03-13T14:47:06.064Z,15.3
2023-03-13T14:48:20.370Z,15.3
2023-03-13T14:49:34.654Z,15.3
2023-03-13T14:50:48.974Z,15.3
2023-03-13T14:52:03.255Z,15.3
2023-03-13T14:53:17.562Z,15.3
2023-03-13T14:54:31.867Z,15.2
2023-03-13T14:57:00.466Z,15.2
2023-03-13T14:58:14.766Z,15.2
2023-03-13T14:59:29.065Z,15.1
2023-03-13T15:00:43.370Z,15.1
2023-03-13T15:01:56.714Z,15.1
2023-03-13T15:03:11.011Z,15.1
2023-03-13T15:05:39.610Z,15.2
2023-03-13T15:06:53.919Z,15.3
2023-03-13T15:08:08.212Z,15.4
2023-03-13T15:09:22.520Z,15.4
2023-03-13T15:10:36.807Z,15.4
2023-03-13T15:11:51.123Z,15.5
2023-03-13T15:13:05.417Z,15.5
2023-03-13T15:14:19.726Z,15.5
2023-03-13T15:15:34.018Z,15.4
2023-03-13T15:16:48.311Z,15.4
2023-03-13T15:19:16.918Z,15.3
2023-03-13T15:20:31.226Z,15.2
2023-03-13T15:22:59.815Z,15.1
2023-03-13T15:24:13.157Z,15.1
2023-03-13T15:25:27.459Z,15
2023-03-13T15:27:56.054Z,14.9
2023-03-13T15:29:10.367Z,14.9
2023-03-13T15:30:24.663Z,14.8
2023-03-13T15:31:38.970Z,14.8
2023-03-13T15:34:07.558Z,14.8
2023-03-13T15:37:50.473Z,14.7
2023-03-13T15:39:04.767Z,14.7
2023-03-13T15:41:33.361Z,14.7
2023-03-13T15:42:47.664Z,14.7
2023-03-13T15:44:01.972Z,14.7
2023-03-13T15:45:16.274Z,14.6
2023-03-13T15:46:29.614Z,14.6
2023-03-13T15:47:43.919Z,14.6
2023-03-13T15:50:12.505Z,14.6
2023-03-13T15:51:26.813Z,14.6
2023-03-13T15:52:41.122Z,14.6
2023-03-13T15:53:55.418Z,14.5
2023-03-13T15:55:09.723Z,14.5
2023-03-13T16:00:06.919Z,14.5
2023-03-13T16:01:21.220Z,14.5
2023-03-13T16:03:49.818Z,14.5
2023-03-13T16:05:04.127Z,14.5
2023-03-13T16:07:32.717Z,14.5
2023-03-13T16:08:47.009Z,14.5
2023-03-13T16:10:01.320Z,14.5
2023-03-13T16:12:29.927Z,14.6
2023-03-13T16:13:44.216Z,14.5
2023-03-13T16:14:58.523Z,14.5
2023-03-13T16:16:12.809Z,14.6
2023-03-13T16:17:27.123Z,14.6
2023-03-13T16:18:41.427Z,14.6
2023-03-13T16:19:54.774Z,14.6
2023-03-13T16:21:09.076Z,14.6
2023-03-13T16:23:37.682Z,14.6
2023-03-13T16:24:51.987Z,14.7
2023-03-13T16:26:06.281Z,14.7
2023-03-13T16:28:34.879Z,14.7
2023-03-13T16:29:49.188Z,14.7
2023-03-13T16:31:03.483Z,14.7
2023-03-13T16:32:17.772Z,14.8
2023-03-13T16:33:32.087Z,14.7
2023-03-13T16:34:46.379Z,14.7
2023-03-13T16:36:00.674Z,14.7
2023-03-13T16:37:14.985Z,14.7
2023-03-13T16:38:29.287Z,14.6
2023-03-13T16:39:43.579Z,14.5
2023-03-13T16:40:57.887Z,14.5
2023-03-13T16:42:12.189Z,14.5
2023-03-13T16:43:25.527Z,14.4
2023-03-13T16:44:39.831Z,14.4
2023-03-13T16:45:54.133Z,14.4
2023-03-13T16:47:08.430Z,14.3
2023-03-13T16:49:37.023Z,14.3
2023-03-13T16:50:51.337Z,14.2
2023-03-13T16:52:05.634Z,14.2
2023-03-13T16:53:19.942Z,14.2
2023-03-13T16:54:34.229Z,14.2
2023-03-13T16:55:48.530Z,14.2
2023-03-13T16:57:02.833Z,14.2
2023-03-13T16:58:16.207Z,14.2
2023-03-13T16:59:30.499Z,14.2
2023-03-13T17:00:44.791Z,14.2
2023-03-13T17:03:13.396Z,14.2
2023-03-13T17:04:27.702Z,14.2
2023-03-13T17:08:10.601Z,14.2
2023-03-13T17:09:24.905Z,14.2
2023-03-13T17:10:39.210Z,14.2
2023-03-13T17:14:22.109Z,14.2
2023-03-13T17:15:35.454Z,14.2
2023-03-13T17:16:49.741Z,14.2
2023-03-13T17:19:18.355Z,14.2
2023-03-13T17:20:32.657Z,14.2
2023-03-13T17:21:46.951Z,14.2
2023-03-13T17:23:01.245Z,14.2
2023-03-13T17:24:15.547Z,14.2
2023-03-13T17:25:29.849Z,14.2
2023-03-13T17:26:44.150Z,14.2
2023-03-13T17:27:57.523Z,14.2
2023-03-13T17:30:26.000Z,14.1
2023-03-13T17:31:40.416Z,14.1
2023-03-13T17:34:09.083Z,14.1
2023-03-13T17:36:37.791Z,14.1
2023-03-13T17:37:52.146Z,14
2023-03-13T17:39:05.549Z,14
2023-03-13T17:40:19.887Z,14
2023-03-13T17:42:48.611Z,14
2023-03-13T17:44:02.954Z,14
2023-03-13T17:45:17.308Z,13.9
2023-03-13T17:46:31.658Z,13.9
2023-03-13T17:47:46.008Z,13.9
2023-03-13T17:49:00.368Z,13.8
2023-03-13T17:51:29.086Z,13.9
2023-03-13T17:52:43.433Z,13.9
2023-03-13T17:53:57.789Z,13.9
2023-03-13T17:55:11.185Z,13.9
2023-03-13T17:56:25.553Z,13.9
2023-03-13T17:57:39.907Z,13.9
2023-03-13T17:58:54.257Z,13.9
2023-03-13T18:01:22.970Z,13.9
2023-03-13T18:02:37.322Z,13.9
2023-03-13T18:03:51.678Z,13.9
2023-03-13T18:05:06.026Z,13.9
2023-03-13T18:06:20.389Z,13.9
2023-03-13T18:07:34.739Z,14
2023-03-13T18:08:49.091Z,14
2023-03-13T18:10:03.440Z,14.1
2023-03-13T18:11:17.799Z,14.1
2023-03-13T18:12:32.147Z,14.2
2023-03-13T18:13:46.508Z,14.2
2023-03-13T18:15:00.859Z,14.2
2023-03-13T18:16:15.209Z,14.3
2023-03-13T18:21:12.623Z,14.3
2023-03-13T18:22:26.972Z,14.3
2023-03-13T18:23:41.325Z,14.2
2023-03-13T18:24:55.698Z,14.2
2023-03-13T18:29:53.112Z,13.9
2023-03-13T18:32:20.864Z,13.8
2023-03-13T18:33:35.219Z,13.7
2023-03-13T18:34:49.563Z,13.7
2023-03-13T18:36:03.916Z,13.6
2023-03-13T18:37:18.266Z,13.6
2023-03-13T18:38:32.622Z,13.6
2023-03-13T18:39:46.988Z,13.5
2023-03-13T18:41:01.336Z,13.5
2023-03-13T18:43:30.037Z,13.6
2023-03-13T18:45:58.749Z,13.5
2023-03-13T18:48:27.464Z,13.5
2023-03-13T18:49:41.816Z,13.5
2023-03-13T18:50:56.174Z,13.5
2023-03-13T18:53:24.879Z,13.5
2023-03-13T18:54:39.230Z,13.4
2023-03-13T18:55:53.595Z,13.5
2023-03-13T18:57:07.938Z,13.4
2023-03-13T18:59:36.650Z,13.4
2023-03-13T19:03:19.710Z,13.4
2023-03-13T19:04:34.063Z,13.4
2023-03-13T19:05:48.000Z,13.4
2023-03-13T19:07:02.782Z,13.4
2023-03-13T19:08:17.119Z,13.4
2023-03-13T19:10:45.827Z,13.4
2023-03-13T19:13:13.581Z,13.4
2023-03-13T19:14:27.936Z,13.4
2023-03-13T19:16:56.655Z,13.4
2023-03-13T19:18:11.000Z,13.4
2023-03-13T19:19:25.369Z,13.4
2023-03-13T19:20:39.727Z,13.4
2023-03-13T19:21:54.078Z,13.4
2023-03-13T19:23:08.427Z,13.4
2023-03-13T19:24:22.778Z,13.3
2023-03-13T19:28:05.840Z,13.3
2023-03-13T19:30:34.545Z,13.3
2023-03-13T19:31:48.889Z,13.3
2023-03-13T19:34:17.607Z,13.2
2023-03-13T19:35:31.955Z,13.1
2023-03-13T19:36:46.320Z,13
2023-03-13T19:38:00.679Z,13
2023-03-13T19:40:29.376Z,12.9
2023-03-13T19:41:43.731Z,12.9
2023-03-13T19:44:11.483Z,12.8
2023-03-13T19:45:25.851Z,12.8
2023-03-13T19:46:40.191Z,12.8
2023-03-13T19:47:54.542Z,12.7
2023-03-13T19:50:23.249Z,12.7
2023-03-13T19:52:51.961Z,12.6
2023-03-13T19:54:06.315Z,12.6
2023-03-13T19:55:20.684Z,12.5
2023-03-13T19:56:35.034Z,12.5
2023-03-13T19:57:49.382Z,12.5
2023-03-13T19:59:03.731Z,12.5
2023-03-13T20:01:32.571Z,12.5
2023-03-13T20:02:46.913Z,12.4
2023-03-13T20:04:01.278Z,12.4